sensor_id;sensor_type;location;lat;lon;timestamp;P1;durP1;ratioP1;P2;durP2;ratioP2
35803;SDS011;21924;51.934;7.414;2024-02-21T00:01:41;28.35;;;12.38;;
35803;SDS011;21924;51.934;7.414;2024-02-21T00:04:26;28.35;;;12.65;;
35803;SDS011;21924;51.934;7.414;2024-02-21T00:07:10;31.45;;;11.55;;
35803;SDS011;21924;51.934;7.414;2024-02-21T00:09:54;26.52;;;13.20;;
35803;SDS011;21924;51.934;7.414;2024-02-21T00:12:39;32.42;;;12.68;;
35803;SDS011;21924;51.934;7.414;2024-02-21T00:15:23;35.22;;;13.32;;
35803;SDS011;21924;51.934;7.414;2024-02-21T00:18:07;28.42;;;13.43;;
35803;SDS011;21924;51.934;7.414;2024-02-21T00:20:51;33.47;;;13.07;;
35803;SDS011;21924;51.934;7.414;2024-02-21T00:23:36;26.80;;;12.85;;
35803;SDS011;21924;51.934;7.414;2024-02-21T00:26:20;35.50;;;13.40;;
35803;SDS011;21924;51.934;7.414;2024-02-21T00:29:04;33.58;;;12.80;;
35803;SDS011;21924;51.934;7.414;2024-02-21T00:31:49;32.03;;;12.82;;
35803;SDS011;21924;51.934;7.414;2024-02-21T00:34:34;36.97;;;14.23;;
35803;SDS011;21924;51.934;7.414;2024-02-21T00:37:19;35.03;;;14.68;;
35803;SDS011;21924;51.934;7.414;2024-02-21T00:40:03;39.05;;;14.63;;
35803;SDS011;21924;51.934;7.414;2024-02-21T00:42:49;41.55;;;13.65;;
35803;SDS011;21924;51.934;7.414;2024-02-21T00:45:33;30.95;;;13.65;;
35803;SDS011;21924;51.934;7.414;2024-02-21T00:48:17;39.40;;;13.75;;
35803;SDS011;21924;51.934;7.414;2024-02-21T00:51:02;38.28;;;13.45;;
35803;SDS011;21924;51.934;7.414;2024-02-21T00:53:46;37.13;;;13.63;;
35803;SDS011;21924;51.934;7.414;2024-02-21T00:56:31;52.65;;;15.43;;
35803;SDS011;21924;51.934;7.414;2024-02-21T00:59:15;43.33;;;14.82;;
35803;SDS011;21924;51.934;7.414;2024-02-21T01:02:00;43.03;;;14.82;;
35803;SDS011;21924;51.934;7.414;2024-02-21T01:04:44;38.08;;;15.73;;
35803;SDS011;21924;51.934;7.414;2024-02-21T01:07:28;36.42;;;14.27;;
35803;SDS011;21924;51.934;7.414;2024-02-21T01:10:13;33.22;;;15.60;;
35803;SDS011;21924;51.934;7.414;2024-02-21T01:12:57;42.28;;;15.80;;
35803;SDS011;21924;51.934;7.414;2024-02-21T01:15:41;37.80;;;14.52;;
35803;SDS011;21924;51.934;7.414;2024-02-21T01:18:25;47.97;;;16.48;;
35803;SDS011;21924;51.934;7.414;2024-02-21T01:21:10;46.83;;;15.70;;
35803;SDS011;21924;51.934;7.414;2024-02-21T01:23:54;38.35;;;15.75;;
35803;SDS011;21924;51.934;7.414;2024-02-21T01:26:38;43.22;;;15.60;;
35803;SDS011;21924;51.934;7.414;2024-02-21T01:29:22;46.70;;;16.35;;
35803;SDS011;21924;51.934;7.414;2024-02-21T01:32:07;38.00;;;15.52;;
35803;SDS011;21924;51.934;7.414;2024-02-21T01:34:51;38.30;;;15.60;;
35803;SDS011;21924;51.934;7.414;2024-02-21T01:37:35;36.08;;;15.02;;
35803;SDS011;21924;51.934;7.414;2024-02-21T01:40:19;41.78;;;15.52;;
35803;SDS011;21924;51.934;7.414;2024-02-21T01:43:14;41.10;;;15.75;;
35803;SDS011;21924;51.934;7.414;2024-02-21T01:46:00;31.42;;;15.20;;
35803;SDS011;21924;51.934;7.414;2024-02-21T01:48:45;52.53;;;15.98;;
35803;SDS011;21924;51.934;7.414;2024-02-21T01:51:30;35.78;;;14.80;;
35803;SDS011;21924;51.934;7.414;2024-02-21T01:54:15;34.17;;;14.82;;
35803;SDS011;21924;51.934;7.414;2024-02-21T01:57:00;40.10;;;15.48;;
35803;SDS011;21924;51.934;7.414;2024-02-21T01:59:45;37.55;;;15.52;;
35803;SDS011;21924;51.934;7.414;2024-02-21T02:02:30;46.40;;;15.90;;
35803;SDS011;21924;51.934;7.414;2024-02-21T02:05:15;49.50;;;16.27;;
35803;SDS011;21924;51.934;7.414;2024-02-21T02:08:02;37.65;;;15.05;;
35803;SDS011;21924;51.934;7.414;2024-02-21T02:10:46;45.90;;;16.33;;
35803;SDS011;21924;51.934;7.414;2024-02-21T02:13:31;37.83;;;14.73;;
35803;SDS011;21924;51.934;7.414;2024-02-21T02:16:15;34.47;;;15.88;;
35803;SDS011;21924;51.934;7.414;2024-02-21T02:18:59;39.97;;;14.68;;
35803;SDS011;21924;51.934;7.414;2024-02-21T02:21:47;33.67;;;14.48;;
35803;SDS011;21924;51.934;7.414;2024-02-21T02:24:39;36.95;;;14.63;;
35803;SDS011;21924;51.934;7.414;2024-02-21T02:27:24;35.92;;;14.88;;
35803;SDS011;21924;51.934;7.414;2024-02-21T02:30:08;45.08;;;15.15;;
35803;SDS011;21924;51.934;7.414;2024-02-21T02:32:53;37.20;;;14.27;;
35803;SDS011;21924;51.934;7.414;2024-02-21T02:35:38;37.35;;;15.07;;
35803;SDS011;21924;51.934;7.414;2024-02-21T02:38:22;42.53;;;16.83;;
35803;SDS011;21924;51.934;7.414;2024-02-21T02:41:06;37.42;;;15.13;;
35803;SDS011;21924;51.934;7.414;2024-02-21T02:43:51;32.55;;;14.23;;
35803;SDS011;21924;51.934;7.414;2024-02-21T02:46:35;40.88;;;16.23;;
35803;SDS011;21924;51.934;7.414;2024-02-21T02:49:38;37.80;;;14.65;;
35803;SDS011;21924;51.934;7.414;2024-02-21T02:52:37;35.10;;;14.07;;
35803;SDS011;21924;51.934;7.414;2024-02-21T02:55:37;33.25;;;14.90;;
35803;SDS011;21924;51.934;7.414;2024-02-21T02:58:37;35.50;;;15.23;;
35803;SDS011;21924;51.934;7.414;2024-02-21T03:01:36;42.53;;;15.13;;
35803;SDS011;21924;51.934;7.414;2024-02-21T03:04:23;36.55;;;13.50;;
35803;SDS011;21924;51.934;7.414;2024-02-21T03:07:08;32.85;;;14.38;;
35803;SDS011;21924;51.934;7.414;2024-02-21T03:09:52;35.67;;;16.52;;
35803;SDS011;21924;51.934;7.414;2024-02-21T03:12:37;35.60;;;14.63;;
35803;SDS011;21924;51.934;7.414;2024-02-21T03:15:21;39.72;;;13.88;;
35803;SDS011;21924;51.934;7.414;2024-02-21T03:18:05;34.10;;;14.10;;
35803;SDS011;21924;51.934;7.414;2024-02-21T03:20:49;42.15;;;15.20;;
35803;SDS011;21924;51.934;7.414;2024-02-21T03:23:34;46.13;;;16.02;;
35803;SDS011;21924;51.934;7.414;2024-02-21T03:26:18;43.78;;;14.32;;
35803;SDS011;21924;51.934;7.414;2024-02-21T03:29:06;35.85;;;14.05;;
35803;SDS011;21924;51.934;7.414;2024-02-21T03:31:50;34.70;;;14.52;;
35803;SDS011;21924;51.934;7.414;2024-02-21T03:34:35;31.48;;;13.88;;
35803;SDS011;21924;51.934;7.414;2024-02-21T03:37:19;42.38;;;14.07;;
35803;SDS011;21924;51.934;7.414;2024-02-21T03:40:06;35.72;;;13.93;;
35803;SDS011;21924;51.934;7.414;2024-02-21T03:42:53;37.70;;;14.38;;
35803;SDS011;21924;51.934;7.414;2024-02-21T03:45:38;29.20;;;14.23;;
35803;SDS011;21924;51.934;7.414;2024-02-21T03:48:22;35.70;;;12.60;;
35803;SDS011;21924;51.934;7.414;2024-02-21T03:51:07;28.15;;;12.85;;
35803;SDS011;21924;51.934;7.414;2024-02-21T03:53:51;30.17;;;13.18;;
35803;SDS011;21924;51.934;7.414;2024-02-21T03:56:38;34.55;;;13.80;;
35803;SDS011;21924;51.934;7.414;2024-02-21T03:59:26;27.10;;;13.07;;
35803;SDS011;21924;51.934;7.414;2024-02-21T04:02:10;29.52;;;12.27;;
35803;SDS011;21924;51.934;7.414;2024-02-21T04:04:54;33.35;;;13.45;;
35803;SDS011;21924;51.934;7.414;2024-02-21T04:07:38;29.98;;;12.75;;
35803;SDS011;21924;51.934;7.414;2024-02-21T04:10:23;35.70;;;13.40;;
35803;SDS011;21924;51.934;7.414;2024-02-21T04:13:07;30.08;;;12.27;;
35803;SDS011;21924;51.934;7.414;2024-02-21T04:15:52;27.05;;;11.95;;
35803;SDS011;21924;51.934;7.414;2024-02-21T04:18:36;25.58;;;11.27;;
35803;SDS011;21924;51.934;7.414;2024-02-21T04:21:20;28.30;;;12.10;;
35803;SDS011;21924;51.934;7.414;2024-02-21T04:24:05;33.47;;;12.25;;
35803;SDS011;21924;51.934;7.414;2024-02-21T04:26:49;35.53;;;12.18;;
35803;SDS011;21924;51.934;7.414;2024-02-21T04:29:34;20.10;;;11.38;;
35803;SDS011;21924;51.934;7.414;2024-02-21T04:32:18;28.67;;;12.93;;
35803;SDS011;21924;51.934;7.414;2024-02-21T04:35:03;29.58;;;12.93;;
35803;SDS011;21924;51.934;7.414;2024-02-21T04:37:48;24.92;;;11.98;;
35803;SDS011;21924;51.934;7.414;2024-02-21T04:40:33;41.78;;;13.23;;
35803;SDS011;21924;51.934;7.414;2024-02-21T04:43:17;27.00;;;12.05;;
35803;SDS011;21924;51.934;7.414;2024-02-21T04:46:02;27.63;;;11.10;;
35803;SDS011;21924;51.934;7.414;2024-02-21T04:48:46;28.05;;;12.20;;
35803;SDS011;21924;51.934;7.414;2024-02-21T04:51:30;28.40;;;12.02;;
35803;SDS011;21924;51.934;7.414;2024-02-21T04:54:14;28.75;;;10.82;;
35803;SDS011;21924;51.934;7.414;2024-02-21T04:56:58;26.70;;;10.50;;
35803;SDS011;21924;51.934;7.414;2024-02-21T04:59:46;32.03;;;11.45;;
35803;SDS011;21924;51.934;7.414;2024-02-21T05:02:33;31.38;;;12.20;;
35803;SDS011;21924;51.934;7.414;2024-02-21T05:05:18;26.67;;;11.88;;
35803;SDS011;21924;51.934;7.414;2024-02-21T05:08:02;37.15;;;12.65;;
35803;SDS011;21924;51.934;7.414;2024-02-21T05:10:47;29.67;;;10.95;;
35803;SDS011;21924;51.934;7.414;2024-02-21T05:13:31;33.00;;;12.40;;
35803;SDS011;21924;51.934;7.414;2024-02-21T05:16:15;23.13;;;11.60;;
35803;SDS011;21924;51.934;7.414;2024-02-21T05:19:00;27.75;;;10.55;;
35803;SDS011;21924;51.934;7.414;2024-02-21T05:21:44;24.98;;;11.50;;
35803;SDS011;21924;51.934;7.414;2024-02-21T05:24:40;23.58;;;10.60;;
35803;SDS011;21924;51.934;7.414;2024-02-21T05:27:40;27.50;;;10.27;;
35803;SDS011;21924;51.934;7.414;2024-02-21T05:30:40;28.90;;;11.30;;
35803;SDS011;21924;51.934;7.414;2024-02-21T05:33:26;32.08;;;11.32;;
35803;SDS011;21924;51.934;7.414;2024-02-21T05:36:11;24.63;;;12.73;;
35803;SDS011;21924;51.934;7.414;2024-02-21T05:38:55;28.48;;;12.15;;
35803;SDS011;21924;51.934;7.414;2024-02-21T05:41:41;27.33;;;11.85;;
35803;SDS011;21924;51.934;7.414;2024-02-21T05:44:25;16.92;;;9.30;;
35803;SDS011;21924;51.934;7.414;2024-02-21T05:47:10;29.23;;;9.85;;
35803;SDS011;21924;51.934;7.414;2024-02-21T05:49:55;20.02;;;10.82;;
35803;SDS011;21924;51.934;7.414;2024-02-21T05:52:39;21.35;;;10.02;;
35803;SDS011;21924;51.934;7.414;2024-02-21T05:55:24;28.60;;;11.13;;
35803;SDS011;21924;51.934;7.414;2024-02-21T05:58:09;26.23;;;11.95;;
35803;SDS011;21924;51.934;7.414;2024-02-21T06:00:57;22.67;;;10.32;;
35803;SDS011;21924;51.934;7.414;2024-02-21T06:03:41;40.17;;;12.00;;
35803;SDS011;21924;51.934;7.414;2024-02-21T06:06:25;25.67;;;11.73;;
35803;SDS011;21924;51.934;7.414;2024-02-21T06:09:10;24.95;;;10.15;;
35803;SDS011;21924;51.934;7.414;2024-02-21T06:11:54;25.67;;;11.13;;
35803;SDS011;21924;51.934;7.414;2024-02-21T06:14:38;23.52;;;10.18;;
35803;SDS011;21924;51.934;7.414;2024-02-21T06:17:22;23.70;;;11.32;;
35803;SDS011;21924;51.934;7.414;2024-02-21T06:20:07;22.75;;;10.65;;
35803;SDS011;21924;51.934;7.414;2024-02-21T06:22:51;23.42;;;9.82;;
35803;SDS011;21924;51.934;7.414;2024-02-21T06:25:36;23.42;;;11.15;;
35803;SDS011;21924;51.934;7.414;2024-02-21T06:28:21;22.00;;;10.70;;
35803;SDS011;21924;51.934;7.414;2024-02-21T06:31:06;25.45;;;10.45;;
35803;SDS011;21924;51.934;7.414;2024-02-21T06:33:50;20.50;;;10.70;;
35803;SDS011;21924;51.934;7.414;2024-02-21T06:36:34;27.55;;;9.90;;
35803;SDS011;21924;51.934;7.414;2024-02-21T06:39:19;25.20;;;11.60;;
35803;SDS011;21924;51.934;7.414;2024-02-21T06:42:03;20.33;;;10.20;;
35803;SDS011;21924;51.934;7.414;2024-02-21T06:44:47;29.30;;;10.90;;
35803;SDS011;21924;51.934;7.414;2024-02-21T06:47:31;23.67;;;10.57;;
35803;SDS011;21924;51.934;7.414;2024-02-21T06:50:16;16.67;;;10.25;;
35803;SDS011;21924;51.934;7.414;2024-02-21T06:53:00;18.55;;;10.57;;
35803;SDS011;21924;51.934;7.414;2024-02-21T06:55:44;28.85;;;10.23;;
35803;SDS011;21924;51.934;7.414;2024-02-21T06:58:29;29.23;;;10.80;;
35803;SDS011;21924;51.934;7.414;2024-02-21T07:01:13;24.20;;;10.75;;
35803;SDS011;21924;51.934;7.414;2024-02-21T07:03:57;28.88;;;10.38;;
35803;SDS011;21924;51.934;7.414;2024-02-21T07:06:42;24.70;;;10.75;;
35803;SDS011;21924;51.934;7.414;2024-02-21T07:09:26;25.70;;;9.93;;
35803;SDS011;21924;51.934;7.414;2024-02-21T07:12:12;23.55;;;10.75;;
35803;SDS011;21924;51.934;7.414;2024-02-21T07:14:57;23.47;;;11.37;;
35803;SDS011;21924;51.934;7.414;2024-02-21T07:17:45;25.27;;;10.93;;
35803;SDS011;21924;51.934;7.414;2024-02-21T07:20:29;35.30;;;11.23;;
35803;SDS011;21924;51.934;7.414;2024-02-21T07:23:13;17.08;;;9.60;;
35803;SDS011;21924;51.934;7.414;2024-02-21T07:25:57;24.92;;;10.77;;
35803;SDS011;21924;51.934;7.414;2024-02-21T07:28:42;22.88;;;10.90;;
35803;SDS011;21924;51.934;7.414;2024-02-21T07:31:26;24.40;;;10.43;;
35803;SDS011;21924;51.934;7.414;2024-02-21T07:34:10;21.80;;;10.77;;
35803;SDS011;21924;51.934;7.414;2024-02-21T07:36:55;31.23;;;11.02;;
35803;SDS011;21924;51.934;7.414;2024-02-21T07:39:40;21.83;;;10.25;;
35803;SDS011;21924;51.934;7.414;2024-02-21T07:42:24;28.40;;;10.67;;
35803;SDS011;21924;51.934;7.414;2024-02-21T07:45:09;20.17;;;9.85;;
35803;SDS011;21924;51.934;7.414;2024-02-21T07:47:54;24.05;;;9.60;;
35803;SDS011;21924;51.934;7.414;2024-02-21T07:50:38;19.25;;;8.65;;
35803;SDS011;21924;51.934;7.414;2024-02-21T07:53:22;25.75;;;10.57;;
35803;SDS011;21924;51.934;7.414;2024-02-21T07:56:07;21.10;;;10.38;;
35803;SDS011;21924;51.934;7.414;2024-02-21T07:58:51;21.25;;;9.60;;
35803;SDS011;21924;51.934;7.414;2024-02-21T08:01:36;24.55;;;10.15;;
35803;SDS011;21924;51.934;7.414;2024-02-21T08:04:21;19.83;;;9.57;;
35803;SDS011;21924;51.934;7.414;2024-02-21T08:07:05;23.73;;;9.55;;
35803;SDS011;21924;51.934;7.414;2024-02-21T08:09:50;23.88;;;9.65;;
35803;SDS011;21924;51.934;7.414;2024-02-21T08:12:34;25.77;;;9.30;;
35803;SDS011;21924;51.934;7.414;2024-02-21T08:15:19;20.35;;;9.00;;
35803;SDS011;21924;51.934;7.414;2024-02-21T08:18:08;21.30;;;8.20;;
35803;SDS011;21924;51.934;7.414;2024-02-21T08:20:52;22.75;;;9.05;;
35803;SDS011;21924;51.934;7.414;2024-02-21T08:23:36;22.08;;;8.30;;
35803;SDS011;21924;51.934;7.414;2024-02-21T08:26:24;19.08;;;8.75;;
35803;SDS011;21924;51.934;7.414;2024-02-21T08:29:12;27.90;;;8.35;;
35803;SDS011;21924;51.934;7.414;2024-02-21T08:31:56;21.08;;;7.97;;
35803;SDS011;21924;51.934;7.414;2024-02-21T08:34:41;17.58;;;7.68;;
35803;SDS011;21924;51.934;7.414;2024-02-21T08:37:26;25.60;;;8.05;;
35803;SDS011;21924;51.934;7.414;2024-02-21T08:40:14;16.98;;;8.00;;
35803;SDS011;21924;51.934;7.414;2024-02-21T08:43:01;18.92;;;7.68;;
35803;SDS011;21924;51.934;7.414;2024-02-21T08:45:52;20.42;;;7.15;;
35803;SDS011;21924;51.934;7.414;2024-02-21T08:48:36;18.75;;;7.15;;
35803;SDS011;21924;51.934;7.414;2024-02-21T08:51:20;19.80;;;7.75;;
35803;SDS011;21924;51.934;7.414;2024-02-21T08:54:04;20.05;;;7.47;;
35803;SDS011;21924;51.934;7.414;2024-02-21T08:56:55;12.07;;;6.30;;
35803;SDS011;21924;51.934;7.414;2024-02-21T08:59:42;22.60;;;8.45;;
35803;SDS011;21924;51.934;7.414;2024-02-21T09:02:26;23.27;;;10.23;;
35803;SDS011;21924;51.934;7.414;2024-02-21T09:05:11;31.10;;;8.40;;
35803;SDS011;21924;51.934;7.414;2024-02-21T09:07:55;12.90;;;7.35;;
35803;SDS011;21924;51.934;7.414;2024-02-21T09:10:40;15.00;;;7.57;;
35803;SDS011;21924;51.934;7.414;2024-02-21T09:13:24;19.65;;;8.02;;
35803;SDS011;21924;51.934;7.414;2024-02-21T09:16:09;16.05;;;8.05;;
35803;SDS011;21924;51.934;7.414;2024-02-21T09:18:53;13.75;;;7.53;;
35803;SDS011;21924;51.934;7.414;2024-02-21T09:21:37;22.73;;;8.07;;
35803;SDS011;21924;51.934;7.414;2024-02-21T09:24:21;19.10;;;7.38;;
35803;SDS011;21924;51.934;7.414;2024-02-21T09:27:06;22.20;;;7.70;;
35803;SDS011;21924;51.934;7.414;2024-02-21T09:29:50;15.32;;;7.30;;
35803;SDS011;21924;51.934;7.414;2024-02-21T09:32:34;12.77;;;7.80;;
35803;SDS011;21924;51.934;7.414;2024-02-21T09:35:19;20.58;;;6.40;;
35803;SDS011;21924;51.934;7.414;2024-02-21T09:38:06;17.48;;;7.07;;
35803;SDS011;21924;51.934;7.414;2024-02-21T09:40:58;13.80;;;7.43;;
35803;SDS011;21924;51.934;7.414;2024-02-21T09:43:47;16.30;;;6.95;;
35803;SDS011;21924;51.934;7.414;2024-02-21T09:46:39;17.35;;;7.25;;
35803;SDS011;21924;51.934;7.414;2024-02-21T09:49:30;13.65;;;6.93;;
35803;SDS011;21924;51.934;7.414;2024-02-21T09:52:21;15.73;;;6.50;;
35803;SDS011;21924;51.934;7.414;2024-02-21T09:55:06;13.87;;;6.70;;
35803;SDS011;21924;51.934;7.414;2024-02-21T09:57:54;13.40;;;7.60;;
35803;SDS011;21924;51.934;7.414;2024-02-21T10:00:40;20.83;;;9.48;;
35803;SDS011;21924;51.934;7.414;2024-02-21T10:03:24;14.50;;;7.78;;
35803;SDS011;21924;51.934;7.414;2024-02-21T10:06:14;19.45;;;9.18;;
35803;SDS011;21924;51.934;7.414;2024-02-21T10:08:59;16.05;;;7.60;;
35803;SDS011;21924;51.934;7.414;2024-02-21T10:11:46;21.02;;;8.48;;
35803;SDS011;21924;51.934;7.414;2024-02-21T10:14:30;16.70;;;8.77;;
35803;SDS011;21924;51.934;7.414;2024-02-21T10:17:17;16.85;;;7.70;;
35803;SDS011;21924;51.934;7.414;2024-02-21T10:20:07;19.83;;;8.68;;
35803;SDS011;21924;51.934;7.414;2024-02-21T10:23:01;18.20;;;8.50;;
35803;SDS011;21924;51.934;7.414;2024-02-21T10:25:51;21.77;;;8.70;;
35803;SDS011;21924;51.934;7.414;2024-02-21T10:28:36;23.65;;;7.60;;
35803;SDS011;21924;51.934;7.414;2024-02-21T10:31:28;13.77;;;7.93;;
35803;SDS011;21924;51.934;7.414;2024-02-21T10:34:12;15.48;;;8.63;;
35803;SDS011;21924;51.934;7.414;2024-02-21T10:37:02;19.67;;;9.38;;
35803;SDS011;21924;51.934;7.414;2024-02-21T10:39:47;19.17;;;8.77;;
35803;SDS011;21924;51.934;7.414;2024-02-21T10:42:31;20.08;;;10.45;;
35803;SDS011;21924;51.934;7.414;2024-02-21T10:45:18;20.23;;;10.30;;
35803;SDS011;21924;51.934;7.414;2024-02-21T10:48:08;19.35;;;8.63;;
35803;SDS011;21924;51.934;7.414;2024-02-21T10:56:57;16.85;;;7.72;;
35803;SDS011;21924;51.934;7.414;2024-02-21T10:59:44;14.15;;;7.43;;
35803;SDS011;21924;51.934;7.414;2024-02-21T11:02:29;12.93;;;6.17;;
35803;SDS011;21924;51.934;7.414;2024-02-21T11:05:15;8.25;;;6.13;;
35803;SDS011;21924;51.934;7.414;2024-02-21T11:08:00;12.10;;;6.40;;
35803;SDS011;21924;51.934;7.414;2024-02-21T11:10:45;15.95;;;6.93;;
35803;SDS011;21924;51.934;7.414;2024-02-21T11:13:36;15.65;;;6.55;;
35803;SDS011;21924;51.934;7.414;2024-02-21T11:16:21;11.32;;;5.32;;
35803;SDS011;21924;51.934;7.414;2024-02-21T11:21:55;17.42;;;6.65;;
35803;SDS011;21924;51.934;7.414;2024-02-21T11:24:41;14.27;;;6.63;;
35803;SDS011;21924;51.934;7.414;2024-02-21T11:27:26;19.67;;;6.25;;
35803;SDS011;21924;51.934;7.414;2024-02-21T11:30:11;12.82;;;6.00;;
35803;SDS011;21924;51.934;7.414;2024-02-21T11:33:05;13.35;;;5.88;;
35803;SDS011;21924;51.934;7.414;2024-02-21T11:35:50;14.57;;;5.50;;
35803;SDS011;21924;51.934;7.414;2024-02-21T11:38:37;9.07;;;6.45;;
35803;SDS011;21924;51.934;7.414;2024-02-21T11:41:24;11.85;;;6.40;;
35803;SDS011;21924;51.934;7.414;2024-02-21T11:44:08;13.52;;;6.28;;
35803;SDS011;21924;51.934;7.414;2024-02-21T11:46:52;10.02;;;5.93;;
35803;SDS011;21924;51.934;7.414;2024-02-21T11:49:37;16.63;;;6.43;;
35803;SDS011;21924;51.934;7.414;2024-02-21T11:52:26;16.48;;;7.30;;
35803;SDS011;21924;51.934;7.414;2024-02-21T11:55:11;10.43;;;6.53;;
35803;SDS011;21924;51.934;7.414;2024-02-21T11:57:55;11.55;;;5.75;;
35803;SDS011;21924;51.934;7.414;2024-02-21T12:00:39;10.48;;;5.82;;
35803;SDS011;21924;51.934;7.414;2024-02-21T12:03:24;14.07;;;6.05;;
35803;SDS011;21924;51.934;7.414;2024-02-21T12:06:08;14.70;;;6.75;;
35803;SDS011;21924;51.934;7.414;2024-02-21T12:08:57;10.38;;;6.25;;
35803;SDS011;21924;51.934;7.414;2024-02-21T12:11:42;10.00;;;5.85;;
35803;SDS011;21924;51.934;7.414;2024-02-21T12:14:28;11.32;;;6.00;;
35803;SDS011;21924;51.934;7.414;2024-02-21T12:19:58;7.78;;;5.45;;
35803;SDS011;21924;51.934;7.414;2024-02-21T12:22:42;14.35;;;5.97;;
35803;SDS011;21924;51.934;7.414;2024-02-21T12:25:27;8.73;;;6.13;;
35803;SDS011;21924;51.934;7.414;2024-02-21T12:28:15;11.23;;;4.97;;
35803;SDS011;21924;51.934;7.414;2024-02-21T12:31:01;14.85;;;4.93;;
35803;SDS011;21924;51.934;7.414;2024-02-21T12:33:47;10.63;;;4.53;;
35803;SDS011;21924;51.934;7.414;2024-02-21T12:36:32;9.48;;;5.00;;
35803;SDS011;21924;51.934;7.414;2024-02-21T12:39:17;7.65;;;4.97;;
35803;SDS011;21924;51.934;7.414;2024-02-21T12:42:01;13.93;;;5.10;;
35803;SDS011;21924;51.934;7.414;2024-02-21T12:44:45;11.15;;;4.50;;
35803;SDS011;21924;51.934;7.414;2024-02-21T12:47:30;7.88;;;5.10;;
35803;SDS011;21924;51.934;7.414;2024-02-21T12:50:14;15.68;;;5.30;;
35803;SDS011;21924;51.934;7.414;2024-02-21T12:52:58;10.70;;;5.20;;
35803;SDS011;21924;51.934;7.414;2024-02-21T12:55:43;15.48;;;5.45;;
35803;SDS011;21924;51.934;7.414;2024-02-21T12:58:27;13.48;;;4.68;;
35803;SDS011;21924;51.934;7.414;2024-02-21T13:01:15;14.45;;;6.05;;
35803;SDS011;21924;51.934;7.414;2024-02-21T13:03:59;11.68;;;5.07;;
35803;SDS011;21924;51.934;7.414;2024-02-21T13:06:44;23.92;;;5.30;;
35803;SDS011;21924;51.934;7.414;2024-02-21T13:09:29;12.60;;;5.93;;
35803;SDS011;21924;51.934;7.414;2024-02-21T13:12:13;9.77;;;5.38;;
35803;SDS011;21924;51.934;7.414;2024-02-21T13:14:57;11.93;;;5.88;;
35803;SDS011;21924;51.934;7.414;2024-02-21T13:17:44;11.70;;;5.45;;
35803;SDS011;21924;51.934;7.414;2024-02-21T13:23:12;14.93;;;4.93;;
35803;SDS011;21924;51.934;7.414;2024-02-21T13:25:57;13.70;;;5.45;;
35803;SDS011;21924;51.934;7.414;2024-02-21T13:28:41;13.23;;;5.30;;
35803;SDS011;21924;51.934;7.414;2024-02-21T13:31:25;8.00;;;4.70;;
35803;SDS011;21924;51.934;7.414;2024-02-21T13:34:10;7.63;;;5.07;;
35803;SDS011;21924;51.934;7.414;2024-02-21T13:36:54;11.00;;;5.10;;
35803;SDS011;21924;51.934;7.414;2024-02-21T13:39:41;10.80;;;5.13;;
35803;SDS011;21924;51.934;7.414;2024-02-21T13:42:25;10.82;;;5.60;;
35803;SDS011;21924;51.934;7.414;2024-02-21T13:45:11;14.00;;;5.15;;
35803;SDS011;21924;51.934;7.414;2024-02-21T13:47:57;8.95;;;4.32;;
35803;SDS011;21924;51.934;7.414;2024-02-21T13:50:41;12.65;;;4.72;;
35803;SDS011;21924;51.934;7.414;2024-02-21T13:53:27;13.52;;;5.22;;
35803;SDS011;21924;51.934;7.414;2024-02-21T13:56:12;25.88;;;5.53;;
35803;SDS011;21924;51.934;7.414;2024-02-21T13:58:57;11.25;;;4.88;;
35803;SDS011;21924;51.934;7.414;2024-02-21T14:01:43;8.38;;;4.35;;
35803;SDS011;21924;51.934;7.414;2024-02-21T14:04:31;14.63;;;5.82;;
35803;SDS011;21924;51.934;7.414;2024-02-21T14:07:15;9.90;;;5.65;;
35803;SDS011;21924;51.934;7.414;2024-02-21T14:10:01;14.33;;;5.97;;
35803;SDS011;21924;51.934;7.414;2024-02-21T14:12:45;11.02;;;5.32;;
35803;SDS011;21924;51.934;7.414;2024-02-21T14:15:29;12.65;;;5.28;;
35803;SDS011;21924;51.934;7.414;2024-02-21T14:18:14;12.48;;;5.15;;
35803;SDS011;21924;51.934;7.414;2024-02-21T14:21:00;11.20;;;4.97;;
35803;SDS011;21924;51.934;7.414;2024-02-21T14:23:44;8.93;;;3.60;;
35803;SDS011;21924;51.934;7.414;2024-02-21T14:26:28;13.23;;;5.15;;
35803;SDS011;21924;51.934;7.414;2024-02-21T14:29:14;6.93;;;3.95;;
35803;SDS011;21924;51.934;7.414;2024-02-21T14:31:59;14.60;;;4.10;;
35803;SDS011;21924;51.934;7.414;2024-02-21T14:34:43;9.07;;;4.60;;
35803;SDS011;21924;51.934;7.414;2024-02-21T14:37:27;6.00;;;3.90;;
35803;SDS011;21924;51.934;7.414;2024-02-21T14:40:12;9.10;;;4.60;;
35803;SDS011;21924;51.934;7.414;2024-02-21T14:42:56;10.70;;;4.40;;
35803;SDS011;21924;51.934;7.414;2024-02-21T14:45:40;10.38;;;4.00;;
35803;SDS011;21924;51.934;7.414;2024-02-21T14:48:24;16.10;;;4.13;;
35803;SDS011;21924;51.934;7.414;2024-02-21T14:51:09;13.48;;;3.85;;
35803;SDS011;21924;51.934;7.414;2024-02-21T14:53:53;14.82;;;3.90;;
35803;SDS011;21924;51.934;7.414;2024-02-21T15:00:16;20.35;;;4.53;;
35803;SDS011;21924;51.934;7.414;2024-02-21T15:06:54;6.55;;;3.63;;
35803;SDS011;21924;51.934;7.414;2024-02-21T15:13:39;12.30;;;3.78;;
35803;SDS011;21924;51.934;7.414;2024-02-21T15:20:05;8.15;;;4.03;;
35803;SDS011;21924;51.934;7.414;2024-02-21T16:11:02;7.32;;;3.53;;
35803;SDS011;21924;51.934;7.414;2024-02-21T16:45:19;11.40;;;5.00;;
35803;SDS011;21924;51.934;7.414;2024-02-21T16:48:23;13.98;;;4.68;;
35803;SDS011;21924;51.934;7.414;2024-02-21T16:51:10;9.82;;;4.93;;
35803;SDS011;21924;51.934;7.414;2024-02-21T16:57:43;14.73;;;4.28;;
35803;SDS011;21924;51.934;7.414;2024-02-21T17:04:18;13.55;;;4.63;;
35803;SDS011;21924;51.934;7.414;2024-02-21T17:07:20;12.25;;;5.00;;
35803;SDS011;21924;51.934;7.414;2024-02-21T17:10:20;15.00;;;4.45;;
35803;SDS011;21924;51.934;7.414;2024-02-21T17:13:19;7.25;;;4.32;;
35803;SDS011;21924;51.934;7.414;2024-02-21T17:16:19;9.00;;;4.53;;
35803;SDS011;21924;51.934;7.414;2024-02-21T17:19:04;9.45;;;4.65;;
35803;SDS011;21924;51.934;7.414;2024-02-21T17:29:19;10.65;;;4.68;;
35803;SDS011;21924;51.934;7.414;2024-02-21T17:32:19;11.18;;;3.75;;
35803;SDS011;21924;51.934;7.414;2024-02-21T17:35:18;9.98;;;4.70;;
35803;SDS011;21924;51.934;7.414;2024-02-21T17:45:31;6.72;;;4.85;;
35803;SDS011;21924;51.934;7.414;2024-02-21T17:48:34;11.05;;;5.80;;
35803;SDS011;21924;51.934;7.414;2024-02-21T17:51:38;7.13;;;4.70;;
35803;SDS011;21924;51.934;7.414;2024-02-21T17:55:20;9.50;;;4.68;;
35803;SDS011;21924;51.934;7.414;2024-02-21T18:05:27;7.70;;;4.18;;
35803;SDS011;21924;51.934;7.414;2024-02-21T18:15:20;5.72;;;4.28;;
35803;SDS011;21924;51.934;7.414;2024-02-21T18:29:22;10.88;;;5.00;;
35803;SDS011;21924;51.934;7.414;2024-02-21T18:35:21;10.07;;;4.43;;
35803;SDS011;21924;51.934;7.414;2024-02-21T18:38:09;11.30;;;5.63;;
35803;SDS011;21924;51.934;7.414;2024-02-21T18:48:21;12.68;;;5.05;;
35803;SDS011;21924;51.934;7.414;2024-02-21T18:58:17;14.95;;;4.75;;
35803;SDS011;21924;51.934;7.414;2024-02-21T19:04:09;6.97;;;4.03;;
35803;SDS011;21924;51.934;7.414;2024-02-21T19:07:01;10.32;;;4.32;;
35803;SDS011;21924;51.934;7.414;2024-02-21T19:09:51;10.85;;;5.22;;
35803;SDS011;21924;51.934;7.414;2024-02-21T19:12:40;5.47;;;4.53;;
35803;SDS011;21924;51.934;7.414;2024-02-21T19:15:50;8.07;;;5.13;;
35803;SDS011;21924;51.934;7.414;2024-02-21T19:22:35;11.95;;;5.80;;